sensor_id;sensor_type;location;lat;lon;timestamp;temperature;humidity
17146;DHT22;8688;54.444;18.444;2023-12-07T00:03:29;-1.80;99.90
17146;DHT22;8688;54.444;18.444;2023-12-07T00:05:57;-1.80;91.10
17146;DHT22;8688;54.444;18.444;2023-12-07T00:08:27;-1.80;99.90
17146;DHT22;8688;54.444;18.444;2023-12-07T00:10:55;-1.80;99.90
17146;DHT22;8688;54.444;18.444;2023-12-07T00:13:23;-1.80;99.90
17146;DHT22;8688;54.444;18.444;2023-12-07T00:15:52;-1.80;99.90
17146;DHT22;8688;54.444;18.444;2023-12-07T00:18:20;-1.80;99.90
17146;DHT22;8688;54.444;18.444;2023-12-07T00:20:48;-1.80;99.90
17146;DHT22;8688;54.444;18.444;2023-12-07T00:23:18;-1.80;99.90
17146;DHT22;8688;54.444;18.444;2023-12-07T00:25:48;-1.80;99.90
17146;DHT22;8688;54.444;18.444;2023-12-07T00:28:16;-1.80;99.90
17146;DHT22;8688;54.444;18.444;2023-12-07T00:30:44;-1.80;99.90
17146;DHT22;8688;54.444;18.444;2023-12-07T00:33:12;-1.80;99.90
17146;DHT22;8688;54.444;18.444;2023-12-07T00:35:40;-1.80;99.90
17146;DHT22;8688;54.444;18.444;2023-12-07T00:38:08;-1.70;99.90
17146;DHT22;8688;54.444;18.444;2023-12-07T00:40:36;-1.70;99.90
17146;DHT22;8688;54.444;18.444;2023-12-07T00:43:07;-1.70;99.90
17146;DHT22;8688;54.444;18.444;2023-12-07T00:45:35;-1.70;99.90
17146;DHT22;8688;54.444;18.444;2023-12-07T00:48:05;-1.70;99.90
17146;DHT22;8688;54.444;18.444;2023-12-07T00:50:33;-1.70;99.90
17146;DHT22;8688;54.444;18.444;2023-12-07T00:53:01;-1.70;99.90
17146;DHT22;8688;54.444;18.444;2023-12-07T00:55:30;-1.70;99.90
17146;DHT22;8688;54.444;18.444;2023-12-07T00:57:58;-1.70;99.90
17146;DHT22;8688;54.444;18.444;2023-12-07T01:00:29;-1.60;99.90
17146;DHT22;8688;54.444;18.444;2023-12-07T01:02:57;-1.60;99.90
17146;DHT22;8688;54.444;18.444;2023-12-07T01:05:25;-1.70;99.90
17146;DHT22;8688;54.444;18.444;2023-12-07T01:07:54;-1.70;99.90
17146;DHT22;8688;54.444;18.444;2023-12-07T01:10:22;-1.60;99.90
17146;DHT22;8688;54.444;18.444;2023-12-07T01:12:50;-1.70;99.90
17146;DHT22;8688;54.444;18.444;2023-12-07T01:15:18;-1.70;99.90
17146;DHT22;8688;54.444;18.444;2023-12-07T01:17:48;-1.70;98.30
17146;DHT22;8688;54.444;18.444;2023-12-07T01:20:16;-1.70;94.60
17146;DHT22;8688;54.444;18.444;2023-12-07T01:22:45;-1.70;69.80
17146;DHT22;8688;54.444;18.444;2023-12-07T01:25:13;-1.70;49.20
17146;DHT22;8688;54.444;18.444;2023-12-07T01:27:46;-1.60;99.90
17146;DHT22;8688;54.444;18.444;2023-12-07T01:30:14;-1.60;99.90
17146;DHT22;8688;54.444;18.444;2023-12-07T01:32:42;-1.60;99.90
17146;DHT22;8688;54.444;18.444;2023-12-07T01:35:11;-1.60;99.90
17146;DHT22;8688;54.444;18.444;2023-12-07T01:37:39;-1.60;99.90
17146;DHT22;8688;54.444;18.444;2023-12-07T01:40:08;-1.60;99.90
17146;DHT22;8688;54.444;18.444;2023-12-07T01:42:37;-1.70;99.90
17146;DHT22;8688;54.444;18.444;2023-12-07T01:45:06;-1.60;99.90
17146;DHT22;8688;54.444;18.444;2023-12-07T01:47:35;-1.60;99.90
17146;DHT22;8688;54.444;18.444;2023-12-07T01:50:05;-1.60;99.90
17146;DHT22;8688;54.444;18.444;2023-12-07T01:52:39;-1.60;99.90
17146;DHT22;8688;54.444;18.444;2023-12-07T01:55:10;-1.60;99.90
17146;DHT22;8688;54.444;18.444;2023-12-07T01:57:40;-1.60;99.90
17146;DHT22;8688;54.444;18.444;2023-12-07T02:00:09;-1.60;99.90
17146;DHT22;8688;54.444;18.444;2023-12-07T02:02:41;-1.60;90.60
17146;DHT22;8688;54.444;18.444;2023-12-07T02:05:12;-1.60;99.90
17146;DHT22;8688;54.444;18.444;2023-12-07T02:07:42;-1.60;99.90
17146;DHT22;8688;54.444;18.444;2023-12-07T02:10:11;-1.60;99.90
17146;DHT22;8688;54.444;18.444;2023-12-07T02:12:40;-1.60;99.90
17146;DHT22;8688;54.444;18.444;2023-12-07T02:15:08;-1.60;99.90
17146;DHT22;8688;54.444;18.444;2023-12-07T02:17:46;-1.60;99.90
17146;DHT22;8688;54.444;18.444;2023-12-07T02:20:21;-1.60;99.90
17146;DHT22;8688;54.444;18.444;2023-12-07T02:22:54;-1.50;99.90
17146;DHT22;8688;54.444;18.444;2023-12-07T02:25:26;-1.60;99.90
17146;DHT22;8688;54.444;18.444;2023-12-07T02:27:58;-1.50;99.90
17146;DHT22;8688;54.444;18.444;2023-12-07T02:30:29;-1.50;99.90
17146;DHT22;8688;54.444;18.444;2023-12-07T02:32:57;-1.50;99.90
17146;DHT22;8688;54.444;18.444;2023-12-07T02:35:26;-1.50;99.90
17146;DHT22;8688;54.444;18.444;2023-12-07T02:37:55;-1.60;99.90
17146;DHT22;8688;54.444;18.444;2023-12-07T02:40:27;-1.50;99.90
17146;DHT22;8688;54.444;18.444;2023-12-07T02:43:02;-1.50;99.90
17146;DHT22;8688;54.444;18.444;2023-12-07T02:45:31;-1.60;99.90
17146;DHT22;8688;54.444;18.444;2023-12-07T02:47:59;-1.50;99.90
17146;DHT22;8688;54.444;18.444;2023-12-07T02:50:27;-1.50;99.90
17146;DHT22;8688;54.444;18.444;2023-12-07T02:52:55;-1.50;99.90
17146;DHT22;8688;54.444;18.444;2023-12-07T02:55:23;-1.50;99.90
17146;DHT22;8688;54.444;18.444;2023-12-07T02:57:54;-1.50;99.90
17146;DHT22;8688;54.444;18.444;2023-12-07T03:00:24;-1.50;99.90
17146;DHT22;8688;54.444;18.444;2023-12-07T03:02:59;-1.50;99.90
17146;DHT22;8688;54.444;18.444;2023-12-07T03:05:27;-1.50;99.90
17146;DHT22;8688;54.444;18.444;2023-12-07T03:07:55;-1.50;99.90
17146;DHT22;8688;54.444;18.444;2023-12-07T03:10:23;-1.60;99.90
17146;DHT22;8688;54.444;18.444;2023-12-07T03:12:51;-1.50;99.90
17146;DHT22;8688;54.444;18.444;2023-12-07T03:15:23;-1.60;99.90
17146;DHT22;8688;54.444;18.444;2023-12-07T03:17:52;-1.50;99.90
17146;DHT22;8688;54.444;18.444;2023-12-07T03:20:20;-1.50;99.90
17146;DHT22;8688;54.444;18.444;2023-12-07T03:22:47;-1.50;99.90
17146;DHT22;8688;54.444;18.444;2023-12-07T03:25:15;-1.50;99.90
17146;DHT22;8688;54.444;18.444;2023-12-07T03:27:43;-1.50;99.90
17146;DHT22;8688;54.444;18.444;2023-12-07T03:30:15;-1.50;99.90
17146;DHT22;8688;54.444;18.444;2023-12-07T03:32:45;-1.50;99.90
17146;DHT22;8688;54.444;18.444;2023-12-07T03:35:16;-1.50;99.90
17146;DHT22;8688;54.444;18.444;2023-12-07T03:37:44;-1.50;99.90
17146;DHT22;8688;54.444;18.444;2023-12-07T03:40:14;-1.50;1.00
17146;DHT22;8688;54.444;18.444;2023-12-07T03:42:42;-1.50;1.00
17146;DHT22;8688;54.444;18.444;2023-12-07T03:45:10;-1.40;1.00
17146;DHT22;8688;54.444;18.444;2023-12-07T03:47:38;-1.40;1.00
17146;DHT22;8688;54.444;18.444;2023-12-07T03:50:08;-1.40;1.00
17146;DHT22;8688;54.444;18.444;2023-12-07T03:52:36;-1.50;1.00
17146;DHT22;8688;54.444;18.444;2023-12-07T03:55:04;-1.40;1.00
17146;DHT22;8688;54.444;18.444;2023-12-07T03:57:32;-1.40;1.00
17146;DHT22;8688;54.444;18.444;2023-12-07T04:00:00;-1.40;1.00
17146;DHT22;8688;54.444;18.444;2023-12-07T04:02:30;-1.40;1.00
17146;DHT22;8688;54.444;18.444;2023-12-07T04:05:01;-1.40;1.00
17146;DHT22;8688;54.444;18.444;2023-12-07T04:07:31;-1.40;1.00
17146;DHT22;8688;54.444;18.444;2023-12-07T04:09:58;-1.40;1.00
17146;DHT22;8688;54.444;18.444;2023-12-07T04:12:26;-1.40;1.00
17146;DHT22;8688;54.444;18.444;2023-12-07T04:14:57;-1.40;1.00
17146;DHT22;8688;54.444;18.444;2023-12-07T04:17:25;-1.40;1.00
17146;DHT22;8688;54.444;18.444;2023-12-07T04:19:53;-1.40;1.00
17146;DHT22;8688;54.444;18.444;2023-12-07T04:22:21;-1.40;1.00
17146;DHT22;8688;54.444;18.444;2023-12-07T04:24:51;-1.40;1.00
17146;DHT22;8688;54.444;18.444;2023-12-07T04:27:18;-1.40;1.00
17146;DHT22;8688;54.444;18.444;2023-12-07T04:29:46;-1.40;1.00
17146;DHT22;8688;54.444;18.444;2023-12-07T04:32:14;-1.40;1.00
17146;DHT22;8688;54.444;18.444;2023-12-07T04:34:43;-1.30;1.00
17146;DHT22;8688;54.444;18.444;2023-12-07T04:37:10;-1.40;1.00
17146;DHT22;8688;54.444;18.444;2023-12-07T04:39:47;-1.30;1.00
17146;DHT22;8688;54.444;18.444;2023-12-07T04:42:16;-1.40;1.00
17146;DHT22;8688;54.444;18.444;2023-12-07T04:44:44;-1.30;1.00
17146;DHT22;8688;54.444;18.444;2023-12-07T04:47:11;-1.30;1.00
17146;DHT22;8688;54.444;18.444;2023-12-07T04:49:39;-1.30;1.00
17146;DHT22;8688;54.444;18.444;2023-12-07T04:52:07;-1.30;1.00
17146;DHT22;8688;54.444;18.444;2023-12-07T04:54:35;-1.40;1.00
17146;DHT22;8688;54.444;18.444;2023-12-07T04:57:05;-1.40;1.00
17146;DHT22;8688;54.444;18.444;2023-12-07T04:59:35;-1.30;1.00
17146;DHT22;8688;54.444;18.444;2023-12-07T05:02:05;-1.30;1.00
17146;DHT22;8688;54.444;18.444;2023-12-07T05:04:33;-1.30;1.00
17146;DHT22;8688;54.444;18.444;2023-12-07T05:07:01;-1.30;1.00
17146;DHT22;8688;54.444;18.444;2023-12-07T05:09:30;-1.30;1.00
17146;DHT22;8688;54.444;18.444;2023-12-07T05:11:58;-1.30;1.00
17146;DHT22;8688;54.444;18.444;2023-12-07T05:14:25;-1.30;1.00
17146;DHT22;8688;54.444;18.444;2023-12-07T05:16:59;-1.30;1.00
17146;DHT22;8688;54.444;18.444;2023-12-07T05:19:29;-1.30;1.00
17146;DHT22;8688;54.444;18.444;2023-12-07T05:21:57;-1.30;1.00
17146;DHT22;8688;54.444;18.444;2023-12-07T05:24:25;-1.30;1.00
17146;DHT22;8688;54.444;18.444;2023-12-07T05:26:57;-1.30;1.00
17146;DHT22;8688;54.444;18.444;2023-12-07T05:29:25;-1.30;1.00
17146;DHT22;8688;54.444;18.444;2023-12-07T05:31:54;-1.20;1.00
17146;DHT22;8688;54.444;18.444;2023-12-07T05:34:22;-1.30;1.00
17146;DHT22;8688;54.444;18.444;2023-12-07T05:36:49;-1.20;1.00
17146;DHT22;8688;54.444;18.444;2023-12-07T05:39:17;-1.20;1.00
17146;DHT22;8688;54.444;18.444;2023-12-07T05:41:45;-1.20;1.00
17146;DHT22;8688;54.444;18.444;2023-12-07T05:44:12;-1.20;1.00
17146;DHT22;8688;54.444;18.444;2023-12-07T05:46:40;-1.20;1.00
17146;DHT22;8688;54.444;18.444;2023-12-07T05:49:11;-1.20;1.00
17146;DHT22;8688;54.444;18.444;2023-12-07T05:51:39;-1.20;1.00
17146;DHT22;8688;54.444;18.444;2023-12-07T05:54:07;-1.20;1.00
17146;DHT22;8688;54.444;18.444;2023-12-07T05:56:34;-1.20;1.00
17146;DHT22;8688;54.444;18.444;2023-12-07T05:59:02;-1.20;1.00
17146;DHT22;8688;54.444;18.444;2023-12-07T06:01:29;-1.20;1.00
17146;DHT22;8688;54.444;18.444;2023-12-07T06:03:58;-1.20;1.00
17146;DHT22;8688;54.444;18.444;2023-12-07T06:06:27;-1.10;1.00
17146;DHT22;8688;54.444;18.444;2023-12-07T06:08:55;-1.10;1.00
17146;DHT22;8688;54.444;18.444;2023-12-07T06:11:23;-1.10;1.00
17146;DHT22;8688;54.444;18.444;2023-12-07T06:13:50;-1.20;1.00
17146;DHT22;8688;54.444;18.444;2023-12-07T06:16:18;-1.20;1.00
17146;DHT22;8688;54.444;18.444;2023-12-07T06:18:46;-1.20;1.00
17146;DHT22;8688;54.444;18.444;2023-12-07T06:21:14;-1.20;1.00
17146;DHT22;8688;54.444;18.444;2023-12-07T06:23:43;-1.20;1.00
17146;DHT22;8688;54.444;18.444;2023-12-07T06:26:12;-1.20;1.00
17146;DHT22;8688;54.444;18.444;2023-12-07T06:28:40;-1.20;1.00
17146;DHT22;8688;54.444;18.444;2023-12-07T06:31:08;-1.20;1.00
17146;DHT22;8688;54.444;18.444;2023-12-07T06:33:36;-1.10;1.00
17146;DHT22;8688;54.444;18.444;2023-12-07T06:36:05;-1.10;1.00
17146;DHT22;8688;54.444;18.444;2023-12-07T06:38:33;-1.10;1.00
17146;DHT22;8688;54.444;18.444;2023-12-07T06:41:02;-1.20;1.00
17146;DHT22;8688;54.444;18.444;2023-12-07T06:43:29;-1.10;1.00
17146;DHT22;8688;54.444;18.444;2023-12-07T06:45:57;-1.20;1.00
17146;DHT22;8688;54.444;18.444;2023-12-07T06:48:24;-1.20;1.00
17146;DHT22;8688;54.444;18.444;2023-12-07T06:50:52;-1.10;1.00
17146;DHT22;8688;54.444;18.444;2023-12-07T06:53:20;-1.10;1.00
17146;DHT22;8688;54.444;18.444;2023-12-07T06:55:50;-1.20;1.00
17146;DHT22;8688;54.444;18.444;2023-12-07T06:58:20;-1.20;1.00
17146;DHT22;8688;54.444;18.444;2023-12-07T07:00:47;-1.20;1.00
17146;DHT22;8688;54.444;18.444;2023-12-07T07:03:15;-1.10;1.00
17146;DHT22;8688;54.444;18.444;2023-12-07T07:05:43;-1.10;1.00
17146;DHT22;8688;54.444;18.444;2023-12-07T07:08:11;-1.10;1.00
17146;DHT22;8688;54.444;18.444;2023-12-07T07:10:39;-1.10;1.00
17146;DHT22;8688;54.444;18.444;2023-12-07T07:13:07;-1.10;1.00
17146;DHT22;8688;54.444;18.444;2023-12-07T07:15:39;-1.10;1.00
17146;DHT22;8688;54.444;18.444;2023-12-07T07:18:08;-1.10;1.00
17146;DHT22;8688;54.444;18.444;2023-12-07T07:20:39;-1.10;1.00
17146;DHT22;8688;54.444;18.444;2023-12-07T07:23:07;-1.10;1.00
17146;DHT22;8688;54.444;18.444;2023-12-07T07:25:35;-1.10;1.00
17146;DHT22;8688;54.444;18.444;2023-12-07T07:28:03;-1.10;1.00
17146;DHT22;8688;54.444;18.444;2023-12-07T07:30:31;-1.10;1.00
17146;DHT22;8688;54.444;18.444;2023-12-07T07:33:00;-1.10;1.00
17146;DHT22;8688;54.444;18.444;2023-12-07T07:35:30;-1.10;1.00
17146;DHT22;8688;54.444;18.444;2023-12-07T07:37:58;-1.00;1.00
17146;DHT22;8688;54.444;18.444;2023-12-07T07:40:26;-1.00;1.00
17146;DHT22;8688;54.444;18.444;2023-12-07T07:42:54;-1.00;1.00
17146;DHT22;8688;54.444;18.444;2023-12-07T07:45:22;-0.90;1.00
17146;DHT22;8688;54.444;18.444;2023-12-07T07:47:51;-0.90;1.00
17146;DHT22;8688;54.444;18.444;2023-12-07T07:50:20;-1.00;1.00
17146;DHT22;8688;54.444;18.444;2023-12-07T07:52:48;-1.00;1.00
17146;DHT22;8688;54.444;18.444;2023-12-07T07:55:16;-1.00;1.00
17146;DHT22;8688;54.444;18.444;2023-12-07T07:57:44;-0.90;1.00
17146;DHT22;8688;54.444;18.444;2023-12-07T08:00:13;-0.90;1.00
17146;DHT22;8688;54.444;18.444;2023-12-07T08:02:40;-0.80;1.00
17146;DHT22;8688;54.444;18.444;2023-12-07T08:05:08;-0.80;1.00
17146;DHT22;8688;54.444;18.444;2023-12-07T08:07:39;-0.80;1.00
17146;DHT22;8688;54.444;18.444;2023-12-07T08:10:08;-0.80;1.00
17146;DHT22;8688;54.444;18.444;2023-12-07T08:12:36;-0.70;1.00
17146;DHT22;8688;54.444;18.444;2023-12-07T08:15:05;-0.70;1.00
17146;DHT22;8688;54.444;18.444;2023-12-07T08:17:37;-0.70;1.00
17146;DHT22;8688;54.444;18.444;2023-12-07T08:20:07;-0.60;1.00
17146;DHT22;8688;54.444;18.444;2023-12-07T08:22:35;-0.70;1.00
17146;DHT22;8688;54.444;18.444;2023-12-07T08:25:05;-0.70;1.00
17146;DHT22;8688;54.444;18.444;2023-12-07T08:27:36;-0.60;1.00
17146;DHT22;8688;54.444;18.444;2023-12-07T08:30:05;-0.60;1.00
17146;DHT22;8688;54.444;18.444;2023-12-07T08:32:35;-0.60;1.00
17146;DHT22;8688;54.444;18.444;2023-12-07T08:35:04;-0.50;1.00
17146;DHT22;8688;54.444;18.444;2023-12-07T08:37:32;-0.50;1.00
17146;DHT22;8688;54.444;18.444;2023-12-07T08:40:00;-0.50;1.00
17146;DHT22;8688;54.444;18.444;2023-12-07T08:42:29;-0.50;1.00
17146;DHT22;8688;54.444;18.444;2023-12-07T08:44:58;-0.50;1.00
17146;DHT22;8688;54.444;18.444;2023-12-07T08:47:26;-0.50;1.00
17146;DHT22;8688;54.444;18.444;2023-12-07T08:49:54;-0.40;1.00
17146;DHT22;8688;54.444;18.444;2023-12-07T08:52:22;-0.40;1.00
17146;DHT22;8688;54.444;18.444;2023-12-07T08:54:50;-0.40;1.00
17146;DHT22;8688;54.444;18.444;2023-12-07T08:57:18;-0.40;1.00
17146;DHT22;8688;54.444;18.444;2023-12-07T08:59:47;-0.30;1.00
17146;DHT22;8688;54.444;18.444;2023-12-07T09:02:15;-0.30;1.00
17146;DHT22;8688;54.444;18.444;2023-12-07T09:04:43;-0.30;1.00
17146;DHT22;8688;54.444;18.444;2023-12-07T09:07:11;-0.30;1.00
17146;DHT22;8688;54.444;18.444;2023-12-07T09:09:41;-0.20;1.00
17146;DHT22;8688;54.444;18.444;2023-12-07T09:12:13;-0.30;1.00
17146;DHT22;8688;54.444;18.444;2023-12-07T09:14:42;-0.20;1.00
17146;DHT22;8688;54.444;18.444;2023-12-07T09:17:11;-0.20;1.00
17146;DHT22;8688;54.444;18.444;2023-12-07T09:19:39;-0.20;1.00
17146;DHT22;8688;54.444;18.444;2023-12-07T09:22:07;-0.20;1.00
17146;DHT22;8688;54.444;18.444;2023-12-07T09:24:38;-0.20;1.00
17146;DHT22;8688;54.444;18.444;2023-12-07T09:27:09;-0.10;1.00
17146;DHT22;8688;54.444;18.444;2023-12-07T09:29:40;-0.10;1.00
17146;DHT22;8688;54.444;18.444;2023-12-07T09:32:07;-0.10;1.00
17146;DHT22;8688;54.444;18.444;2023-12-07T09:34:40;-0.10;1.00
17146;DHT22;8688;54.444;18.444;2023-12-07T09:37:07;-0.10;1.00
17146;DHT22;8688;54.444;18.444;2023-12-07T09:39:35;-0.10;1.00
17146;DHT22;8688;54.444;18.444;2023-12-07T09:42:03;-0.10;1.00
17146;DHT22;8688;54.444;18.444;2023-12-07T09:44:31;-0.10;1.00
17146;DHT22;8688;54.444;18.444;2023-12-07T09:46:59;-0.10;1.00
17146;DHT22;8688;54.444;18.444;2023-12-07T09:49:26;-0.10;1.00
17146;DHT22;8688;54.444;18.444;2023-12-07T09:51:59;-0.10;1.00
17146;DHT22;8688;54.444;18.444;2023-12-07T09:54:28;-0.10;1.00
17146;DHT22;8688;54.444;18.444;2023-12-07T09:56:56;0.00;1.00
17146;DHT22;8688;54.444;18.444;2023-12-07T09:59:25;0.00;1.00
17146;DHT22;8688;54.444;18.444;2023-12-07T10:01:52;0.00;1.00
17146;DHT22;8688;54.444;18.444;2023-12-07T10:04:21;0.00;1.00
17146;DHT22;8688;54.444;18.444;2023-12-07T10:06:52;0.00;1.00
17146;DHT22;8688;54.444;18.444;2023-12-07T10:09:21;0.10;1.00
17146;DHT22;8688;54.444;18.444;2023-12-07T10:11:49;0.10;1.00
17146;DHT22;8688;54.444;18.444;2023-12-07T10:14:16;0.20;1.00
17146;DHT22;8688;54.444;18.444;2023-12-07T10:16:54;0.20;1.00
17146;DHT22;8688;54.444;18.444;2023-12-07T10:19:22;0.30;1.00
17146;DHT22;8688;54.444;18.444;2023-12-07T10:21:51;0.30;1.00
17146;DHT22;8688;54.444;18.444;2023-12-07T10:24:21;0.20;1.00
17146;DHT22;8688;54.444;18.444;2023-12-07T10:26:52;0.20;1.00
17146;DHT22;8688;54.444;18.444;2023-12-07T10:29:22;0.20;1.00
17146;DHT22;8688;54.444;18.444;2023-12-07T10:31:50;0.30;1.00
17146;DHT22;8688;54.444;18.444;2023-12-07T10:34:18;0.30;1.00
17146;DHT22;8688;54.444;18.444;2023-12-07T10:36:47;0.30;1.00
17146;DHT22;8688;54.444;18.444;2023-12-07T10:39:17;0.30;1.00
17146;DHT22;8688;54.444;18.444;2023-12-07T10:41:48;0.30;1.00
17146;DHT22;8688;54.444;18.444;2023-12-07T10:44:18;0.30;1.00
17146;DHT22;8688;54.444;18.444;2023-12-07T10:46:46;0.30;1.00
17146;DHT22;8688;54.444;18.444;2023-12-07T10:49:19;0.40;1.00
17146;DHT22;8688;54.444;18.444;2023-12-07T10:51:54;0.40;1.00
17146;DHT22;8688;54.444;18.444;2023-12-07T10:54:30;0.50;1.00
17146;DHT22;8688;54.444;18.444;2023-12-07T10:57:05;0.40;99.90
17146;DHT22;8688;54.444;18.444;2023-12-07T10:59:35;0.50;99.90
17146;DHT22;8688;54.444;18.444;2023-12-07T11:02:06;0.40;99.90
17146;DHT22;8688;54.444;18.444;2023-12-07T11:04:35;0.50;99.90
17146;DHT22;8688;54.444;18.444;2023-12-07T11:07:09;0.40;99.90
17146;DHT22;8688;54.444;18.444;2023-12-07T11:09:41;0.50;99.90
17146;DHT22;8688;54.444;18.444;2023-12-07T11:12:18;0.60;99.90
17146;DHT22;8688;54.444;18.444;2023-12-07T11:14:46;0.60;99.90
17146;DHT22;8688;54.444;18.444;2023-12-07T11:17:15;0.70;99.90
17146;DHT22;8688;54.444;18.444;2023-12-07T11:19:44;0.60;99.90
17146;DHT22;8688;54.444;18.444;2023-12-07T11:22:12;0.50;99.90
17146;DHT22;8688;54.444;18.444;2023-12-07T11:24:53;0.50;99.90
17146;DHT22;8688;54.444;18.444;2023-12-07T11:27:24;0.50;99.90
17146;DHT22;8688;54.444;18.444;2023-12-07T11:29:52;0.50;99.90
17146;DHT22;8688;54.444;18.444;2023-12-07T11:32:20;0.50;99.90
17146;DHT22;8688;54.444;18.444;2023-12-07T11:34:48;0.50;99.90
17146;DHT22;8688;54.444;18.444;2023-12-07T11:37:16;0.40;99.90
17146;DHT22;8688;54.444;18.444;2023-12-07T11:39:44;0.40;99.90
17146;DHT22;8688;54.444;18.444;2023-12-07T11:42:15;0.50;99.90
17146;DHT22;8688;54.444;18.444;2023-12-07T11:44:48;0.40;99.90
17146;DHT22;8688;54.444;18.444;2023-12-07T11:47:17;0.40;99.90
17146;DHT22;8688;54.444;18.444;2023-12-07T11:49:46;0.40;99.90
17146;DHT22;8688;54.444;18.444;2023-12-07T11:52:15;0.40;99.90
17146;DHT22;8688;54.444;18.444;2023-12-07T11:54:43;0.40;99.90
17146;DHT22;8688;54.444;18.444;2023-12-07T11:57:12;0.40;99.90
17146;DHT22;8688;54.444;18.444;2023-12-07T11:59:41;0.40;99.90
17146;DHT22;8688;54.444;18.444;2023-12-07T12:02:12;0.40;99.90
17146;DHT22;8688;54.444;18.444;2023-12-07T12:04:40;0.40;99.90
17146;DHT22;8688;54.444;18.444;2023-12-07T12:07:08;0.40;99.90
17146;DHT22;8688;54.444;18.444;2023-12-07T12:09:36;0.40;99.90
17146;DHT22;8688;54.444;18.444;2023-12-07T12:12:05;0.30;99.90
17146;DHT22;8688;54.444;18.444;2023-12-07T12:14:33;0.30;99.90
17146;DHT22;8688;54.444;18.444;2023-12-07T12:17:00;0.30;99.90
17146;DHT22;8688;54.444;18.444;2023-12-07T12:19:29;0.30;99.90
17146;DHT22;8688;54.444;18.444;2023-12-07T12:22:01;0.30;99.90
17146;DHT22;8688;54.444;18.444;2023-12-07T12:24:30;0.30;1.00
17146;DHT22;8688;54.444;18.444;2023-12-07T12:26:58;0.30;1.00
17146;DHT22;8688;54.444;18.444;2023-12-07T12:29:26;0.20;1.00
17146;DHT22;8688;54.444;18.444;2023-12-07T12:31:54;0.20;1.00
17146;DHT22;8688;54.444;18.444;2023-12-07T12:34:22;0.20;1.00
17146;DHT22;8688;54.444;18.444;2023-12-07T12:36:51;0.20;1.00
17146;DHT22;8688;54.444;18.444;2023-12-07T12:39:27;0.20;1.00
17146;DHT22;8688;54.444;18.444;2023-12-07T12:41:56;0.20;1.00
17146;DHT22;8688;54.444;18.444;2023-12-07T12:44:25;0.20;1.00
17146;DHT22;8688;54.444;18.444;2023-12-07T12:46:52;0.20;1.00
17146;DHT22;8688;54.444;18.444;2023-12-07T12:49:21;0.30;1.00
17146;DHT22;8688;54.444;18.444;2023-12-07T12:51:50;0.40;1.00
17146;DHT22;8688;54.444;18.444;2023-12-07T12:54:21;0.30;1.00
17146;DHT22;8688;54.444;18.444;2023-12-07T12:56:49;0.30;1.00
17146;DHT22;8688;54.444;18.444;2023-12-07T12:59:17;0.30;1.00
17146;DHT22;8688;54.444;18.444;2023-12-07T13:01:46;0.30;1.00
17146;DHT22;8688;54.444;18.444;2023-12-07T13:04:14;0.30;1.00
17146;DHT22;8688;54.444;18.444;2023-12-07T13:06:42;0.30;1.00
17146;DHT22;8688;54.444;18.444;2023-12-07T13:09:12;0.30;1.00
17146;DHT22;8688;54.444;18.444;2023-12-07T13:11:52;0.30;1.00
17146;DHT22;8688;54.444;18.444;2023-12-07T13:14:20;0.20;1.00
17146;DHT22;8688;54.444;18.444;2023-12-07T13:16:48;0.20;1.00
17146;DHT22;8688;54.444;18.444;2023-12-07T13:19:15;0.20;1.00
17146;DHT22;8688;54.444;18.444;2023-12-07T13:21:46;0.20;1.00
17146;DHT22;8688;54.444;18.444;2023-12-07T13:24:14;0.20;1.00
17146;DHT22;8688;54.444;18.444;2023-12-07T13:26:42;0.20;1.00
17146;DHT22;8688;54.444;18.444;2023-12-07T13:29:10;0.20;1.00
17146;DHT22;8688;54.444;18.444;2023-12-07T13:31:37;0.20;1.00
17146;DHT22;8688;54.444;18.444;2023-12-07T13:34:05;0.20;1.00
17146;DHT22;8688;54.444;18.444;2023-12-07T13:36:33;0.30;1.00
17146;DHT22;8688;54.444;18.444;2023-12-07T13:39:02;0.30;1.00
17146;DHT22;8688;54.444;18.444;2023-12-07T13:41:31;0.30;1.00
17146;DHT22;8688;54.444;18.444;2023-12-07T13:43:59;0.30;1.00
17146;DHT22;8688;54.444;18.444;2023-12-07T13:46:27;0.30;1.00
17146;DHT22;8688;54.444;18.444;2023-12-07T13:48:54;0.20;1.00
17146;DHT22;8688;54.444;18.444;2023-12-07T13:51:22;0.20;1.00
17146;DHT22;8688;54.444;18.444;2023-12-07T13:53:50;0.30;1.00
17146;DHT22;8688;54.444;18.444;2023-12-07T13:56:21;0.30;1.00
17146;DHT22;8688;54.444;18.444;2023-12-07T13:58:51;0.20;1.00
17146;DHT22;8688;54.444;18.444;2023-12-07T14:01:19;0.30;1.00
17146;DHT22;8688;54.444;18.444;2023-12-07T14:03:47;0.20;1.00
17146;DHT22;8688;54.444;18.444;2023-12-07T14:06:21;0.20;1.00
17146;DHT22;8688;54.444;18.444;2023-12-07T14:08:50;0.10;1.00
17146;DHT22;8688;54.444;18.444;2023-12-07T14:11:18;0.10;1.00
17146;DHT22;8688;54.444;18.444;2023-12-07T14:13:44;0.10;1.00
17146;DHT22;8688;54.444;18.444;2023-12-07T14:16:14;0.10;1.00
17146;DHT22;8688;54.444;18.444;2023-12-07T14:18:41;0.10;1.00
17146;DHT22;8688;54.444;18.444;2023-12-07T14:21:09;0.00;1.00
17146;DHT22;8688;54.444;18.444;2023-12-07T14:23:38;0.10;1.00
17146;DHT22;8688;54.444;18.444;2023-12-07T14:26:06;0.10;1.00
17146;DHT22;8688;54.444;18.444;2023-12-07T14:28:33;0.00;1.00
17146;DHT22;8688;54.444;18.444;2023-12-07T14:31:03;0.00;1.00
17146;DHT22;8688;54.444;18.444;2023-12-07T14:33:34;0.00;1.00
17146;DHT22;8688;54.444;18.444;2023-12-07T14:36:02;0.00;1.00
17146;DHT22;8688;54.444;18.444;2023-12-07T14:38:30;0.00;1.00
17146;DHT22;8688;54.444;18.444;2023-12-07T14:40:59;-0.10;1.00
17146;DHT22;8688;54.444;18.444;2023-12-07T14:43:26;0.00;1.00
17146;DHT22;8688;54.444;18.444;2023-12-07T14:45:56;0.00;1.00
17146;DHT22;8688;54.444;18.444;2023-12-07T14:48:26;0.00;1.00
17146;DHT22;8688;54.444;18.444;2023-12-07T14:50:56;0.00;1.00
17146;DHT22;8688;54.444;18.444;2023-12-07T14:53:29;-0.10;1.00
17146;DHT22;8688;54.444;18.444;2023-12-07T14:55:58;-0.10;1.00
17146;DHT22;8688;54.444;18.444;2023-12-07T14:58:27;-0.10;1.00
17146;DHT22;8688;54.444;18.444;2023-12-07T15:00:55;-0.10;1.00
17146;DHT22;8688;54.444;18.444;2023-12-07T15:03:23;-0.10;1.00
17146;DHT22;8688;54.444;18.444;2023-12-07T15:05:51;-0.10;1.00
17146;DHT22;8688;54.444;18.444;2023-12-07T15:08:21;-0.10;1.00
17146;DHT22;8688;54.444;18.444;2023-12-07T15:10:48;-0.10;1.00
17146;DHT22;8688;54.444;18.444;2023-12-07T15:13:18;-0.10;1.00
17146;DHT22;8688;54.444;18.444;2023-12-07T15:15:45;-0.10;1.00
17146;DHT22;8688;54.444;18.444;2023-12-07T15:18:13;-0.10;1.00
17146;DHT22;8688;54.444;18.444;2023-12-07T15:20:42;-0.10;1.00
17146;DHT22;8688;54.444;18.444;2023-12-07T15:23:10;-0.10;1.00
17146;DHT22;8688;54.444;18.444;2023-12-07T15:25:40;-0.10;1.00
17146;DHT22;8688;54.444;18.444;2023-12-07T15:28:07;-0.10;1.00
17146;DHT22;8688;54.444;18.444;2023-12-07T15:30:37;-0.10;1.00
17146;DHT22;8688;54.444;18.444;2023-12-07T15:33:05;0.00;1.00
17146;DHT22;8688;54.444;18.444;2023-12-07T15:35:34;-0.10;1.00
17146;DHT22;8688;54.444;18.444;2023-12-07T15:38:02;-0.10;1.00
17146;DHT22;8688;54.444;18.444;2023-12-07T15:40:30;-0.10;1.00
17146;DHT22;8688;54.444;18.444;2023-12-07T15:42:59;0.00;1.00
17146;DHT22;8688;54.444;18.444;2023-12-07T15:45:27;-0.10;1.00
17146;DHT22;8688;54.444;18.444;2023-12-07T15:47:55;-0.10;1.00
17146;DHT22;8688;54.444;18.444;2023-12-07T15:50:23;-0.10;1.00
17146;DHT22;8688;54.444;18.444;2023-12-07T15:52:51;-0.10;1.00
17146;DHT22;8688;54.444;18.444;2023-12-07T15:55:19;-0.10;1.00
17146;DHT22;8688;54.444;18.444;2023-12-07T15:57:47;-0.10;1.00